createdAt,value
2019-04-25T00:01:24.742Z,16.00
2019-04-25T00:03:55.402Z,17.48
2019-04-25T00:06:26.545Z,14.95
2019-04-25T00:08:56.364Z,17.65
2019-04-25T00:11:26.254Z,17.48
2019-04-25T00:13:56.077Z,14.80
2019-04-25T00:16:27.680Z,16.60
2019-04-25T00:18:57.558Z,17.23
2019-04-25T00:21:33.812Z,17.10
2019-04-25T00:24:05.057Z,13.32
2019-04-25T00:26:36.585Z,20.97
2019-04-25T00:29:06.542Z,16.70
2019-04-25T00:31:36.521Z,17.77
2019-04-25T00:34:07.181Z,12.75
2019-04-25T00:36:38.975Z,15.98
2019-04-25T00:39:08.666Z,16.80
2019-04-25T00:41:38.665Z,17.27
2019-04-25T00:44:08.990Z,14.35
2019-04-25T00:46:38.819Z,13.68
2019-04-25T00:49:08.774Z,13.25
2019-04-25T00:51:38.604Z,14.38
2019-04-25T00:54:08.562Z,13.32
2019-04-25T00:56:39.486Z,15.90
2019-04-25T00:59:11.835Z,14.85
2019-04-25T01:01:56.210Z,14.25
2019-04-25T01:04:27.661Z,16.52
2019-04-25T01:06:57.622Z,14.40
2019-04-25T01:09:28.690Z,15.05
2019-04-25T01:11:58.942Z,17.87
2019-04-25T01:14:28.825Z,11.85
2019-04-25T01:16:58.754Z,15.08
2019-04-25T01:19:28.574Z,14.38
2019-04-25T01:21:58.479Z,11.08
2019-04-25T01:24:28.616Z,12.07
2019-04-25T01:26:58.434Z,17.32
2019-04-25T01:29:28.551Z,11.33
2019-04-25T01:31:58.442Z,14.05
2019-04-25T01:34:29.975Z,13.08
2019-04-25T01:39:58.002Z,15.38
2019-04-25T01:42:33.672Z,13.72
2019-04-25T01:45:05.609Z,16.80
2019-04-25T01:47:35.455Z,10.65
2019-04-25T01:50:07.478Z,14.63
2019-04-25T01:52:38.285Z,15.35
2019-04-25T01:55:08.456Z,13.30
2019-04-25T01:57:38.274Z,13.40
2019-04-25T02:00:09.734Z,16.45
2019-04-25T02:02:39.939Z,19.17
2019-04-25T02:05:10.513Z,12.78
2019-04-25T02:07:40.702Z,14.73
2019-04-25T02:10:11.218Z,10.72
2019-04-25T02:12:45.717Z,17.07
2019-04-25T02:15:18.142Z,12.07
2019-04-25T02:17:47.963Z,15.90
2019-04-25T02:20:17.862Z,16.25
2019-04-25T02:22:47.699Z,17.48
2019-04-25T02:25:19.146Z,16.10
2019-04-25T02:27:48.954Z,12.98
2019-04-25T02:30:19.753Z,14.00
2019-04-25T02:32:49.639Z,13.45
2019-04-25T02:35:19.892Z,16.00
2019-04-25T02:37:49.708Z,10.75
2019-04-25T02:40:20.292Z,14.00
2019-04-25T02:42:50.107Z,11.85
2019-04-25T02:48:17.018Z,14.68
2019-04-25T02:50:48.543Z,13.20
2019-04-25T02:53:29.948Z,14.87
2019-04-25T02:55:59.856Z,16.57
2019-04-25T02:58:29.656Z,13.35
2019-04-25T03:01:08.077Z,18.23
2019-04-25T03:03:32.002Z,10.93
2019-04-25T03:06:03.002Z,11.33
2019-04-25T03:08:35.398Z,15.38
2019-04-25T03:11:07.437Z,16.55
2019-04-25T03:13:36.505Z,14.23
2019-04-25T03:16:09.044Z,14.07
2019-04-25T03:18:39.825Z,13.25
2019-04-25T03:21:17.215Z,16.40
2019-04-25T03:23:47.555Z,14.00
2019-04-25T03:26:17.435Z,15.38
2019-04-25T03:28:47.324Z,13.05
2019-04-25T03:31:22.531Z,12.15
2019-04-25T03:33:50.713Z,12.13
2019-04-25T03:36:20.940Z,17.20
2019-04-25T03:38:50.755Z,20.20
2019-04-25T03:41:20.653Z,10.93
2019-04-25T03:43:50.549Z,17.25
2019-04-25T03:46:20.439Z,10.15
2019-04-25T03:48:50.257Z,11.65
2019-04-25T03:51:20.083Z,15.30
2019-04-25T03:53:50.974Z,12.43
2019-04-25T03:56:20.798Z,10.85
2019-04-25T03:58:50.686Z,10.65
2019-04-25T04:01:20.494Z,12.65
2019-04-25T04:03:50.388Z,13.20
2019-04-25T04:06:20.270Z,14.47
2019-04-25T04:08:50.096Z,13.78
2019-04-25T04:11:20.257Z,10.43
2019-04-25T04:13:50.062Z,19.42
2019-04-25T04:16:23.170Z,16.30
2019-04-25T04:18:54.499Z,14.38
2019-04-25T04:21:41.274Z,13.58
2019-04-25T04:24:14.161Z,16.07
2019-04-25T04:26:46.419Z,15.05
2019-04-25T04:29:16.469Z,11.18
2019-04-25T04:31:46.302Z,17.37
2019-04-25T04:34:17.024Z,17.50
2019-04-25T04:36:46.985Z,12.18
2019-04-25T04:39:18.777Z,8.70
2019-04-25T04:41:48.708Z,11.30
2019-04-25T04:44:38.169Z,19.05
2019-04-25T04:47:08.559Z,11.85
2019-04-25T04:49:43.978Z,16.00
2019-04-25T04:52:14.666Z,15.03
2019-04-25T04:54:45.543Z,10.55
2019-04-25T04:57:26.556Z,21.45
2019-04-25T04:59:47.299Z,20.00
2019-04-25T05:02:27.894Z,15.93
2019-04-25T05:05:05.770Z,28.98
2019-04-25T05:07:40.470Z,21.85
2019-04-25T05:10:11.280Z,15.78
2019-04-25T05:12:41.142Z,17.07
2019-04-25T05:15:11.040Z,18.82
2019-04-25T05:17:41.026Z,19.42
2019-04-25T05:20:11.984Z,11.78
2019-04-25T05:22:44.514Z,20.12
2019-04-25T05:25:16.199Z,18.85
2019-04-25T05:28:00.124Z,26.45
2019-04-25T05:30:23.655Z,20.05
2019-04-25T05:33:00.505Z,17.37
2019-04-25T05:35:30.386Z,21.93
2019-04-25T05:38:00.269Z,22.02
2019-04-25T05:40:30.097Z,26.23
2019-04-25T05:43:03.212Z,18.50
2019-04-25T05:45:34.171Z,17.77
2019-04-25T05:48:05.970Z,23.38
2019-04-25T05:50:35.653Z,23.45
2019-04-25T05:53:05.564Z,21.42
2019-04-25T05:55:35.378Z,19.75
2019-04-25T05:58:05.286Z,13.70
2019-04-25T06:00:35.173Z,15.63
2019-04-25T06:03:05.005Z,21.68
2019-04-25T06:05:34.828Z,12.93
2019-04-25T06:08:04.740Z,14.50
2019-04-25T06:10:39.080Z,16.80
2019-04-25T06:15:46.834Z,18.48
2019-04-25T06:18:19.717Z,18.65
2019-04-25T06:20:49.855Z,14.15
2019-04-25T06:23:24.576Z,18.92
2019-04-25T06:25:56.977Z,19.75
2019-04-25T06:28:28.533Z,15.72
2019-04-25T06:30:58.521Z,10.85
2019-04-25T06:33:29.089Z,19.85
2019-04-25T06:36:00.013Z,19.23
2019-04-25T06:38:49.290Z,16.95
2019-04-25T06:41:19.147Z,26.60
2019-04-25T06:43:50.682Z,21.70
2019-04-25T06:46:40.153Z,21.12
2019-04-25T06:49:29.801Z,19.77
2019-04-25T06:51:59.763Z,20.90
2019-04-25T06:54:29.666Z,17.65
2019-04-25T06:56:59.553Z,22.73
2019-04-25T06:59:30.130Z,23.62
2019-04-25T07:02:00.081Z,19.85
2019-04-25T07:04:30.008Z,7.60
2019-04-25T07:07:09.610Z,14.33
2019-04-25T07:09:34.578Z,19.25
2019-04-25T07:12:04.259Z,12.95
2019-04-25T07:14:36.814Z,18.50
2019-04-25T07:17:06.090Z,21.05
2019-04-25T07:19:35.989Z,20.27
2019-04-25T07:22:05.803Z,18.73
2019-04-25T07:24:35.625Z,16.70
2019-04-25T07:27:24.613Z,16.12
2019-04-25T07:30:00.000Z,18.82
2019-04-25T07:32:32.506Z,12.00
2019-04-25T07:35:03.710Z,17.42
2019-04-25T07:37:37.186Z,16.82
2019-04-25T07:40:07.981Z,14.73
2019-04-25T07:42:37.900Z,14.85
2019-04-25T07:45:08.605Z,14.53
2019-04-25T07:47:38.956Z,18.65
2019-04-25T07:50:08.838Z,18.45
2019-04-25T07:52:38.865Z,16.67
2019-04-25T07:55:08.777Z,16.75
2019-04-25T07:57:38.696Z,22.17
2019-04-25T08:00:13.145Z,27.30
2019-04-25T08:02:44.758Z,21.35
2019-04-25T08:05:17.811Z,25.72
2019-04-25T08:07:47.637Z,18.77
2019-04-25T08:10:17.691Z,22.50
2019-04-25T08:12:47.666Z,18.52
2019-04-25T08:15:21.662Z,21.02
2019-04-25T08:17:55.848Z,24.32
2019-04-25T08:22:58.851Z,29.32
2019-04-25T08:25:26.625Z,20.37
2019-04-25T08:27:56.581Z,26.23
2019-04-25T08:30:26.401Z,25.45
2019-04-25T08:32:56.753Z,18.05
2019-04-25T08:35:26.561Z,19.40
2019-04-25T08:37:56.379Z,20.40
2019-04-25T08:40:26.294Z,14.93
2019-04-25T08:42:56.176Z,20.17
2019-04-25T08:45:26.062Z,17.20
2019-04-25T08:47:55.875Z,15.63
2019-04-25T08:50:31.292Z,23.45
2019-04-25T08:52:58.836Z,17.80
2019-04-25T08:55:44.028Z,16.12
2019-04-25T08:58:21.644Z,16.73
2019-04-25T09:01:09.278Z,14.87
2019-04-25T09:04:15.477Z,18.45
2019-04-25T09:06:48.381Z,17.37
2019-04-25T09:09:18.218Z,12.23
2019-04-25T09:11:48.110Z,20.35
2019-04-25T09:14:17.993Z,14.13
2019-04-25T09:16:48.144Z,13.03
2019-04-25T09:19:18.477Z,15.23
2019-04-25T09:21:49.601Z,18.77
2019-04-25T09:24:19.598Z,14.68
2019-04-25T09:26:49.426Z,16.93
2019-04-25T09:29:20.029Z,10.98
2019-04-25T09:31:50.122Z,20.00
2019-04-25T09:34:19.943Z,16.57
2019-04-25T09:37:03.173Z,11.45
2019-04-25T09:39:51.171Z,11.45
2019-04-25T09:42:21.072Z,14.73
2019-04-25T09:44:53.732Z,13.40
2019-04-25T09:47:23.786Z,17.30
2019-04-25T09:49:55.849Z,17.02
2019-04-25T09:52:25.746Z,14.43
2019-04-25T09:57:56.283Z,17.48
2019-04-25T10:00:47.659Z,12.60
2019-04-25T10:03:17.577Z,11.63
2019-04-25T10:05:47.465Z,14.55
2019-04-25T10:08:17.375Z,15.68
2019-04-25T10:10:47.333Z,16.62
2019-04-25T10:13:17.508Z,17.45
2019-04-25T10:15:50.590Z,16.30
2019-04-25T10:18:20.410Z,16.02
2019-04-25T10:20:50.249Z,14.45
2019-04-25T10:23:20.147Z,16.35
2019-04-25T10:25:50.166Z,13.15
2019-04-25T10:28:23.343Z,20.60
2019-04-25T10:30:55.562Z,15.70
2019-04-25T10:33:25.230Z,23.47
2019-04-25T10:35:59.377Z,16.50
2019-04-25T10:38:27.087Z,18.37
2019-04-25T10:40:56.911Z,16.95
2019-04-25T10:43:27.086Z,15.90
2019-04-25T10:45:56.970Z,19.07
2019-04-25T10:48:26.873Z,22.85
2019-04-25T10:50:56.762Z,12.68
2019-04-25T10:53:26.655Z,16.52
2019-04-25T10:55:59.086Z,18.40
2019-04-25T10:58:28.902Z,13.43
2019-04-25T11:00:58.742Z,14.23
2019-04-25T11:03:33.764Z,17.30
2019-04-25T11:06:04.098Z,14.30
2019-04-25T11:08:34.331Z,12.65
2019-04-25T11:11:04.349Z,14.30
2019-04-25T11:13:35.462Z,19.67
2019-04-25T11:16:07.745Z,12.73
2019-04-25T11:18:37.697Z,16.27
2019-04-25T11:21:07.513Z,10.68
2019-04-25T11:23:37.721Z,15.03
2019-04-25T11:26:07.878Z,11.15
2019-04-25T11:28:39.213Z,11.68
2019-04-25T11:31:10.665Z,14.38
2019-04-25T11:33:40.505Z,15.83
2019-04-25T11:36:10.475Z,13.22
2019-04-25T11:38:45.325Z,16.37
2019-04-25T11:41:16.784Z,13.45
2019-04-25T11:43:46.607Z,14.63
2019-04-25T11:46:16.793Z,10.38
2019-04-25T11:48:46.613Z,10.95
2019-04-25T11:51:17.876Z,10.13
2019-04-25T11:53:48.430Z,10.82
2019-04-25T11:56:18.441Z,18.48
2019-04-25T11:58:48.967Z,11.18
2019-04-25T12:01:19.768Z,14.75
2019-04-25T12:03:50.666Z,7.85
2019-04-25T12:06:20.502Z,13.13
2019-04-25T12:08:51.435Z,9.85
2019-04-25T12:11:23.423Z,12.05
2019-04-25T12:13:54.195Z,10.72
2019-04-25T12:16:25.107Z,13.05
2019-04-25T12:18:56.334Z,13.83
2019-04-25T12:21:27.425Z,11.93
2019-04-25T12:23:58.023Z,17.05
2019-04-25T12:26:27.870Z,15.45
2019-04-25T12:28:57.686Z,21.90
2019-04-25T12:31:27.506Z,14.35
2019-04-25T12:33:57.636Z,19.90
2019-04-25T12:36:27.562Z,13.03
2019-04-25T12:38:57.449Z,11.83
2019-04-25T12:41:27.275Z,10.95
2019-04-25T12:44:01.717Z,16.55
2019-04-25T12:46:36.191Z,14.45
2019-04-25T12:49:06.078Z,13.70
2019-04-25T12:51:35.925Z,17.17
2019-04-25T12:54:06.613Z,16.75
2019-04-25T12:56:36.486Z,17.00
2019-04-25T12:59:06.318Z,15.00
2019-04-25T13:01:36.130Z,15.63
2019-04-25T13:04:06.515Z,19.10
2019-04-25T13:06:37.473Z,14.03
2019-04-25T13:09:07.294Z,15.98
2019-04-25T13:11:37.357Z,21.73
2019-04-25T13:14:07.169Z,16.95
2019-04-25T13:16:37.057Z,19.15
2019-04-25T13:19:16.918Z,20.23
2019-04-25T13:21:38.777Z,17.50
2019-04-25T13:24:08.590Z,24.20
2019-04-25T13:26:40.123Z,18.27
2019-04-25T13:29:27.978Z,16.90
2019-04-25T13:32:04.946Z,23.00
2019-04-25T13:34:36.812Z,16.12
2019-04-25T13:37:07.273Z,20.52
2019-04-25T13:39:37.230Z,18.20
2019-04-25T13:42:08.530Z,16.60
2019-04-25T13:44:38.561Z,19.07
2019-04-25T13:47:08.386Z,18.40
2019-04-25T13:49:38.686Z,11.03
2019-04-25T13:52:09.473Z,20.10
2019-04-25T13:54:39.318Z,19.48
2019-04-25T13:57:09.142Z,11.05
2019-04-25T13:59:41.658Z,20.95
2019-04-25T14:02:11.912Z,23.45
2019-04-25T14:04:41.878Z,16.23
2019-04-25T14:07:13.106Z,18.55
2019-04-25T14:09:44.598Z,13.88
2019-04-25T14:12:14.593Z,17.80
2019-04-25T14:14:44.438Z,13.98
2019-04-25T14:17:33.487Z,21.80
2019-04-25T14:20:16.355Z,18.05
2019-04-25T14:22:46.169Z,17.60
2019-04-25T14:25:16.302Z,17.12
2019-04-25T14:27:46.189Z,16.35
2019-04-25T14:30:17.662Z,22.73
2019-04-25T14:32:47.482Z,19.85
2019-04-25T14:35:17.338Z,18.00
2019-04-25T14:37:47.297Z,18.67
2019-04-25T14:40:17.490Z,22.17
2019-04-25T14:42:47.377Z,12.15
2019-04-25T14:45:17.639Z,18.55
2019-04-25T14:47:47.525Z,19.05
2019-04-25T14:50:17.676Z,15.48
2019-04-25T14:52:47.490Z,16.67
2019-04-25T14:55:19.088Z,16.32
2019-04-25T14:57:50.146Z,14.98
2019-04-25T15:00:30.638Z,12.80
2019-04-25T15:03:00.601Z,15.75
2019-04-25T15:05:31.008Z,15.65
2019-04-25T15:08:01.006Z,14.25
2019-04-25T15:10:31.047Z,17.85
2019-04-25T15:13:01.247Z,18.40
2019-04-25T15:15:31.641Z,16.00
2019-04-25T15:18:01.453Z,16.23
2019-04-25T15:20:32.481Z,12.95
2019-04-25T15:23:02.407Z,13.65
2019-04-25T15:25:35.166Z,17.17
2019-04-25T15:28:04.999Z,15.10
2019-04-25T15:30:38.241Z,14.18
2019-04-25T15:33:08.146Z,18.17
2019-04-25T15:35:42.689Z,13.20
2019-04-25T15:38:14.144Z,13.43
2019-04-25T15:40:48.449Z,13.10
2019-04-25T15:43:22.622Z,12.95
2019-04-25T15:46:00.136Z,9.88
2019-04-25T15:48:29.959Z,12.55
2019-04-25T15:50:59.927Z,9.70
2019-04-25T15:53:30.675Z,12.40
2019-04-25T15:56:00.706Z,10.78
2019-04-25T15:58:30.597Z,10.80
2019-04-25T16:01:00.453Z,10.80
2019-04-25T16:03:30.835Z,7.60
2019-04-25T16:06:00.838Z,8.08
2019-04-25T16:08:30.959Z,6.22
2019-04-25T16:11:00.975Z,8.35
2019-04-25T16:13:30.860Z,9.13
2019-04-25T16:16:00.674Z,7.80
2019-04-25T16:18:30.561Z,3.25
2019-04-25T16:21:00.391Z,8.53
2019-04-25T16:23:30.502Z,7.97
2019-04-25T16:26:00.456Z,6.03
2019-04-25T16:28:31.705Z,7.70
2019-04-25T16:31:04.271Z,13.72
2019-04-25T16:33:33.482Z,3.45
2019-04-25T16:36:03.370Z,6.90
2019-04-25T16:38:33.421Z,8.80
2019-04-25T16:41:04.917Z,5.12
2019-04-25T16:43:38.932Z,7.45
2019-04-25T16:46:09.026Z,2.40
2019-04-25T16:48:39.199Z,5.90
2019-04-25T16:51:09.532Z,6.87
2019-04-25T16:53:40.056Z,5.28
2019-04-25T16:56:11.081Z,6.33
2019-04-25T16:58:40.893Z,2.90
2019-04-25T17:01:12.399Z,7.90
2019-04-25T17:03:42.354Z,4.45
2019-04-25T17:06:12.314Z,5.08
2019-04-25T17:08:42.114Z,6.90
2019-04-25T17:11:12.579Z,5.97
2019-04-25T17:13:44.107Z,5.53
2019-04-25T17:16:15.646Z,4.20
2019-04-25T17:18:50.189Z,4.15
2019-04-25T17:21:20.206Z,6.25
2019-04-25T17:23:50.090Z,7.35
2019-04-25T17:26:19.979Z,11.18
2019-04-25T17:28:51.501Z,5.60
2019-04-25T17:31:28.839Z,4.10
2019-04-25T17:34:00.377Z,7.10
2019-04-25T17:36:36.060Z,4.80
2019-04-25T17:39:41.949Z,5.40
2019-04-25T17:42:12.710Z,4.35
2019-04-25T17:44:42.830Z,5.17
2019-04-25T17:47:12.723Z,4.40
2019-04-25T17:49:42.531Z,7.75
2019-04-25T17:52:12.418Z,3.80
2019-04-25T17:54:43.091Z,4.80
2019-04-25T17:57:12.913Z,5.30
2019-04-25T17:59:43.434Z,6.70
2019-04-25T18:02:13.474Z,4.92
2019-04-25T18:04:43.281Z,3.87
2019-04-25T18:07:13.092Z,4.50
2019-04-25T18:09:43.474Z,5.47
2019-04-25T18:12:13.467Z,5.17
2019-04-25T18:14:43.353Z,4.85
2019-04-25T18:17:13.236Z,12.25
2019-04-25T18:19:50.969Z,6.10
2019-04-25T18:22:22.412Z,6.28
2019-04-25T18:25:09.097Z,3.15
2019-04-25T18:27:44.399Z,7.42
2019-04-25T18:30:14.582Z,4.58
2019-04-25T18:32:52.057Z,5.25
2019-04-25T18:35:23.591Z,10.45
2019-04-25T18:37:58.163Z,9.05
2019-04-25T18:40:30.024Z,8.10
2019-04-25T18:46:03.161Z,7.00
2019-04-25T18:48:32.973Z,9.23
2019-04-25T18:51:03.003Z,4.47
2019-04-25T18:53:52.639Z,3.85
2019-04-25T18:56:24.085Z,4.50
2019-04-25T18:59:05.836Z,9.08
2019-04-25T19:01:43.764Z,4.33
2019-04-25T19:04:16.298Z,6.37
2019-04-25T19:06:55.282Z,5.47
2019-04-25T19:09:18.767Z,7.10
2019-04-25T19:11:48.580Z,3.42
2019-04-25T19:14:18.503Z,3.52
2019-04-25T19:16:48.529Z,7.42
2019-04-25T19:19:18.482Z,8.60
2019-04-25T19:21:49.034Z,4.67
2019-04-25T19:24:18.983Z,8.55
2019-04-25T19:26:48.816Z,6.03
2019-04-25T19:29:18.622Z,4.58
2019-04-25T19:31:48.526Z,6.33
2019-04-25T19:34:18.402Z,5.33
2019-04-25T19:36:49.086Z,6.08
2019-04-25T19:39:21.099Z,5.55
2019-04-25T19:42:08.961Z,4.15
2019-04-25T19:44:38.919Z,5.80
2019-04-25T19:47:11.701Z,6.75
2019-04-25T19:49:41.654Z,7.83
2019-04-25T19:52:11.597Z,8.23
2019-04-25T19:54:41.954Z,6.72
2019-04-25T19:57:11.842Z,5.50
2019-04-25T19:59:43.277Z,6.20
2019-04-25T20:02:15.365Z,6.65
2019-04-25T20:04:47.383Z,7.95
2019-04-25T20:07:21.861Z,5.40
2019-04-25T20:10:11.987Z,6.03
2019-04-25T20:13:01.366Z,7.60
2019-04-25T20:15:31.269Z,5.03
2019-04-25T20:18:01.236Z,8.00
2019-04-25T20:20:31.253Z,9.25
2019-04-25T20:23:01.222Z,6.78
2019-04-25T20:25:31.106Z,5.58
2019-04-25T20:28:00.982Z,4.70
2019-04-25T20:30:30.875Z,4.60
2019-04-25T20:33:00.684Z,7.87
2019-04-25T20:35:31.239Z,6.78
2019-04-25T20:38:01.653Z,9.28
2019-04-25T20:40:31.507Z,5.00
2019-04-25T20:43:02.392Z,8.53
2019-04-25T20:45:32.378Z,7.35
2019-04-25T20:48:03.285Z,9.03
2019-04-25T20:50:33.244Z,6.37
2019-04-25T20:53:03.076Z,9.13
2019-04-25T20:55:33.297Z,3.70
2019-04-25T20:58:03.193Z,7.30
2019-04-25T21:00:40.644Z,8.55
2019-04-25T21:03:10.829Z,10.53
2019-04-25T21:05:41.110Z,8.13
2019-04-25T21:08:11.001Z,13.90
2019-04-25T21:10:40.842Z,5.08
2019-04-25T21:13:12.367Z,7.62
2019-04-25T21:15:47.065Z,8.00
2019-04-25T21:18:24.558Z,9.03
2019-04-25T21:20:55.019Z,9.38
2019-04-25T21:23:24.877Z,7.90
2019-04-25T21:26:07.557Z,5.78
2019-04-25T21:28:37.384Z,7.87
2019-04-25T21:31:07.635Z,6.78
2019-04-25T21:33:37.856Z,4.58
2019-04-25T21:36:08.062Z,8.40
2019-04-25T21:38:38.157Z,6.58
2019-04-25T21:41:26.019Z,6.35
2019-04-25T21:43:58.021Z,8.83
2019-04-25T21:46:28.183Z,7.75
2019-04-25T21:48:58.932Z,6.65
2019-04-25T21:54:22.439Z,11.08
2019-04-25T21:56:53.297Z,9.28
2019-04-25T21:59:24.009Z,13.30
2019-04-25T22:01:55.389Z,6.87
2019-04-25T22:04:38.014Z,7.97
2019-04-25T22:06:57.788Z,4.75
2019-04-25T22:09:28.903Z,5.40
2019-04-25T22:11:59.334Z,7.03
2019-04-25T22:14:29.448Z,7.85
2019-04-25T22:16:59.959Z,4.67
2019-04-25T22:19:33.309Z,8.13
2019-04-25T22:22:03.482Z,7.92
2019-04-25T22:24:34.446Z,6.15
2019-04-25T22:27:05.976Z,8.33
2019-04-25T22:29:37.461Z,11.55
2019-04-25T22:35:09.203Z,6.87
2019-04-25T22:37:39.154Z,9.88
2019-04-25T22:40:09.383Z,4.87
2019-04-25T22:42:39.269Z,7.92
2019-04-25T22:45:09.085Z,7.00
2019-04-25T22:47:39.431Z,13.38
2019-04-25T22:50:09.328Z,7.25
2019-04-25T22:52:39.444Z,6.10
2019-04-25T22:55:09.413Z,8.38
2019-04-25T22:57:39.845Z,5.53
2019-04-25T23:00:11.505Z,7.10
2019-04-25T23:02:44.945Z,7.47
2019-04-25T23:05:28.774Z,5.40
2019-04-25T23:07:58.925Z,8.20
2019-04-25T23:10:29.633Z,7.15
2019-04-25T23:12:59.527Z,11.88
2019-04-25T23:15:29.426Z,7.47
2019-04-25T23:17:59.547Z,11.10
2019-04-25T23:20:29.783Z,7.45
2019-04-25T23:22:59.625Z,8.90
2019-04-25T23:25:31.082Z,8.93
2019-04-25T23:31:10.570Z,6.58
2019-04-25T23:33:40.407Z,5.17
2019-04-25T23:36:11.174Z,4.75
2019-04-25T23:38:41.228Z,6.50
2019-04-25T23:44:17.110Z,4.92
2019-04-25T23:46:47.298Z,5.28
2019-04-25T23:49:17.186Z,3.85
2019-04-25T23:51:47.310Z,4.65
2019-04-25T23:54:17.260Z,9.38
2019-04-25T23:56:47.158Z,10.43
2019-04-25T23:59:17.782Z,5.17
